createdAt,value
2023-02-02T00:01:28.731Z,4.60
2023-02-02T00:03:56.725Z,4.60
2023-02-02T00:06:25.111Z,4.60
2023-02-02T00:08:51.917Z,4.60
2023-02-02T00:11:19.670Z,4.60
2023-02-02T00:13:46.929Z,4.60
2023-02-02T00:16:29.099Z,4.60
2023-02-02T00:19:01.831Z,4.70
2023-02-02T00:21:28.846Z,4.70
2023-02-02T00:23:55.835Z,4.70
2023-02-02T00:26:22.792Z,4.70
2023-02-02T00:28:49.655Z,4.70
2023-02-02T00:31:16.545Z,4.70
2023-02-02T00:33:47.740Z,4.80
2023-02-02T00:36:15.216Z,4.80
2023-02-02T00:38:41.872Z,4.90
2023-02-02T00:41:08.709Z,4.90
2023-02-02T00:43:35.575Z,4.90
2023-02-02T00:46:02.279Z,4.90
2023-02-02T00:48:28.971Z,5.00
2023-02-02T00:50:55.746Z,5.00
2023-02-02T00:53:22.414Z,5.00
2023-02-02T00:55:49.222Z,5.00
2023-02-02T00:58:15.881Z,5.00
2023-02-02T01:00:57.898Z,5.00
2023-02-02T01:03:24.613Z,5.00
2023-02-02T01:05:52.019Z,5.00
2023-02-02T01:08:18.729Z,5.00
2023-02-02T01:10:45.405Z,5.00
2023-02-02T01:13:12.140Z,5.00
2023-02-02T01:15:38.819Z,4.90
2023-02-02T01:18:05.621Z,5.00
2023-02-02T01:20:32.302Z,5.00
2023-02-02T01:22:58.986Z,5.00
2023-02-02T01:25:27.397Z,5.00
2023-02-02T01:27:54.108Z,5.00
2023-02-02T01:30:20.893Z,5.00
2023-02-02T01:32:47.609Z,5.00
2023-02-02T01:35:14.479Z,5.10
2023-02-02T01:37:41.136Z,5.10
2023-02-02T01:40:08.516Z,5.10
2023-02-02T01:42:35.248Z,5.10
2023-02-02T01:45:27.752Z,5.10
2023-02-02T01:47:58.576Z,5.10
2023-02-02T01:50:31.589Z,5.00
2023-02-02T01:53:00.823Z,5.00
2023-02-02T01:55:30.035Z,5.00
2023-02-02T01:58:10.507Z,5.00
2023-02-02T02:00:39.620Z,5.00
2023-02-02T02:03:13.857Z,5.00
2023-02-02T02:05:46.609Z,5.00
2023-02-02T02:08:27.047Z,4.90
2023-02-02T02:10:53.921Z,5.00
2023-02-02T02:13:43.986Z,4.90
2023-02-02T02:16:36.632Z,4.90
2023-02-02T02:20:01.012Z,4.90
2023-02-02T02:23:04.265Z,4.90
2023-02-02T02:26:08.236Z,5.00
2023-02-02T02:29:05.462Z,5.00
2023-02-02T02:31:46.840Z,4.90
2023-02-02T02:34:20.767Z,4.90
2023-02-02T02:36:54.462Z,4.90
2023-02-02T02:39:29.720Z,4.90
2023-02-02T02:42:01.723Z,4.90
2023-02-02T02:44:30.723Z,4.90
2023-02-02T02:46:57.907Z,4.90
2023-02-02T02:49:24.660Z,4.80
2023-02-02T02:51:53.808Z,4.80
2023-02-02T02:54:33.194Z,4.80
2023-02-02T02:57:41.033Z,4.80
2023-02-02T03:00:34.019Z,4.80
2023-02-02T03:03:05.608Z,4.80
2023-02-02T03:06:08.199Z,4.80
2023-02-02T03:08:43.976Z,4.80
2023-02-02T03:11:12.940Z,4.80
2023-02-02T03:13:41.412Z,4.80
2023-02-02T03:16:09.353Z,4.80
2023-02-02T03:18:36.494Z,4.80
2023-02-02T03:21:03.598Z,4.80
2023-02-02T03:23:30.289Z,4.80
2023-02-02T03:25:57.101Z,4.70
2023-02-02T03:28:25.029Z,4.80
2023-02-02T03:30:53.294Z,4.80
2023-02-02T03:33:20.604Z,4.80
2023-02-02T03:35:47.511Z,4.70
2023-02-02T03:38:14.257Z,4.70
2023-02-02T03:40:41.373Z,4.70
2023-02-02T03:43:08.181Z,4.70
2023-02-02T03:45:40.595Z,4.60
2023-02-02T03:48:07.529Z,4.70
2023-02-02T03:50:34.424Z,4.70
2023-02-02T03:53:01.069Z,4.60
2023-02-02T03:55:28.038Z,4.60
2023-02-02T03:57:54.896Z,4.50
2023-02-02T04:00:22.096Z,4.60
2023-02-02T04:02:48.907Z,4.60
2023-02-02T04:05:15.736Z,4.60
2023-02-02T04:07:42.461Z,4.60
2023-02-02T04:10:09.961Z,4.60
2023-02-02T04:12:36.667Z,4.60
2023-02-02T04:15:03.680Z,4.60
2023-02-02T04:17:30.281Z,4.60
2023-02-02T04:19:58.482Z,4.60
2023-02-02T04:22:26.257Z,4.70
2023-02-02T04:24:53.054Z,4.60
2023-02-02T04:27:20.011Z,4.60
2023-02-02T04:29:46.763Z,4.70
2023-02-02T04:32:16.199Z,4.70
2023-02-02T04:34:43.097Z,4.70
2023-02-02T04:37:11.008Z,4.70
2023-02-02T04:39:37.716Z,4.70
2023-02-02T04:42:04.812Z,4.70
2023-02-02T04:44:31.502Z,4.70
2023-02-02T04:46:58.175Z,4.70
2023-02-02T04:49:24.879Z,4.70
2023-02-02T04:51:51.595Z,4.70
2023-02-02T04:54:18.390Z,4.70
2023-02-02T04:56:45.089Z,4.70
2023-02-02T04:59:11.807Z,4.70
2023-02-02T05:01:38.609Z,4.70
2023-02-02T05:04:05.465Z,4.70
2023-02-02T05:06:32.197Z,4.70
2023-02-02T05:08:58.962Z,4.70
2023-02-02T05:11:25.750Z,4.80
2023-02-02T05:13:54.387Z,4.80
2023-02-02T05:16:23.046Z,4.80
2023-02-02T05:18:51.851Z,4.80
2023-02-02T05:21:19.421Z,4.80
2023-02-02T05:23:46.288Z,4.80
2023-02-02T05:26:17.089Z,4.80
2023-02-02T05:28:43.942Z,4.80
2023-02-02T05:31:10.765Z,4.80
2023-02-02T05:33:37.533Z,4.70
2023-02-02T05:36:04.877Z,4.70
2023-02-02T05:38:31.800Z,4.80
2023-02-02T05:40:58.618Z,4.70
2023-02-02T05:43:26.448Z,4.70
2023-02-02T05:45:53.534Z,4.70
2023-02-02T05:48:20.351Z,4.70
2023-02-02T05:51:11.852Z,4.70
2023-02-02T05:53:38.536Z,4.70
2023-02-02T05:56:05.571Z,4.70
2023-02-02T05:58:32.260Z,4.70
2023-02-02T06:00:58.921Z,4.70
2023-02-02T06:03:25.792Z,4.70
2023-02-02T06:05:52.637Z,4.60
2023-02-02T06:08:19.400Z,4.70
2023-02-02T06:10:46.092Z,4.70
2023-02-02T06:13:12.840Z,4.70
2023-02-02T06:15:39.590Z,4.70
2023-02-02T06:18:07.045Z,4.70
2023-02-02T06:20:33.708Z,4.60
2023-02-02T06:23:00.583Z,4.60
2023-02-02T06:25:27.982Z,4.60
2023-02-02T06:27:59.047Z,4.60
2023-02-02T06:30:26.539Z,4.60
2023-02-02T06:32:53.546Z,4.60
2023-02-02T06:35:20.247Z,4.60
2023-02-02T06:37:47.098Z,4.60
2023-02-02T06:40:13.848Z,4.50
2023-02-02T06:42:40.928Z,4.50
2023-02-02T06:45:08.316Z,4.50
2023-02-02T06:47:34.999Z,4.50
2023-02-02T06:50:01.705Z,4.40
2023-02-02T06:52:28.574Z,4.40
2023-02-02T06:54:55.394Z,4.50
2023-02-02T06:57:21.997Z,4.40
2023-02-02T06:59:48.699Z,4.50
2023-02-02T07:02:15.645Z,4.50
2023-02-02T07:04:42.484Z,4.50
2023-02-02T07:07:09.265Z,4.60
2023-02-02T07:09:36.100Z,4.60
2023-02-02T07:12:02.812Z,4.60
2023-02-02T07:14:29.593Z,4.60
2023-02-02T07:16:56.358Z,4.60
2023-02-02T07:19:23.237Z,4.70
2023-02-02T07:21:50.464Z,4.70
2023-02-02T07:24:17.309Z,4.80
2023-02-02T07:26:44.058Z,4.80
2023-02-02T07:29:16.169Z,4.80
2023-02-02T07:31:42.966Z,4.80
2023-02-02T07:34:09.834Z,4.90
2023-02-02T07:36:37.324Z,4.90
2023-02-02T07:39:07.734Z,4.90
2023-02-02T07:41:36.473Z,4.90
2023-02-02T07:44:04.940Z,4.90
2023-02-02T07:46:31.790Z,4.90
2023-02-02T07:48:58.708Z,4.90
2023-02-02T07:51:26.245Z,5.00
2023-02-02T07:53:54.779Z,5.00
2023-02-02T07:56:24.535Z,5.00
2023-02-02T07:58:55.927Z,5.00
2023-02-02T08:01:25.978Z,5.10
2023-02-02T08:03:54.106Z,5.10
2023-02-02T08:06:29.802Z,5.10
2023-02-02T08:08:56.942Z,5.10
2023-02-02T08:11:25.205Z,5.10
2023-02-02T08:13:54.247Z,5.20
2023-02-02T08:16:21.739Z,5.20
2023-02-02T08:18:49.035Z,5.20
2023-02-02T08:21:16.896Z,5.10
2023-02-02T08:23:44.452Z,5.10
2023-02-02T08:26:17.912Z,5.20
2023-02-02T08:28:48.065Z,5.10
2023-02-02T08:31:20.523Z,5.20
2023-02-02T08:33:47.704Z,5.20
2023-02-02T08:36:16.134Z,5.30
2023-02-02T08:38:43.086Z,5.30
2023-02-02T08:41:13.385Z,5.30
2023-02-02T08:43:41.116Z,5.30
2023-02-02T08:46:10.749Z,5.30
2023-02-02T08:48:38.208Z,5.20
2023-02-02T08:51:06.428Z,5.20
2023-02-02T08:53:33.740Z,5.30
2023-02-02T08:56:01.722Z,5.30
2023-02-02T08:58:29.083Z,5.30
2023-02-02T09:01:03.498Z,5.50
2023-02-02T09:03:31.079Z,5.50
2023-02-02T09:05:57.720Z,5.50
2023-02-02T09:08:24.417Z,5.50
2023-02-02T09:10:51.069Z,5.50
2023-02-02T09:13:17.794Z,5.50
2023-02-02T09:15:44.505Z,5.40
2023-02-02T09:18:11.191Z,5.30
2023-02-02T09:20:39.071Z,5.30
2023-02-02T09:23:05.734Z,5.30
2023-02-02T09:25:32.489Z,5.20
2023-02-02T09:27:59.234Z,5.10
2023-02-02T09:30:25.933Z,5.00
2023-02-02T09:32:52.669Z,4.90
2023-02-02T09:35:19.359Z,4.90
2023-02-02T09:37:46.103Z,4.90
2023-02-02T09:40:21.349Z,4.90
2023-02-02T09:43:13.970Z,5.00
2023-02-02T09:45:54.498Z,5.00
2023-02-02T09:48:30.857Z,5.00
2023-02-02T09:51:09.082Z,5.10
2023-02-02T09:53:55.091Z,5.10
2023-02-02T09:56:51.304Z,5.20
2023-02-02T09:59:29.307Z,5.30
2023-02-02T10:01:58.332Z,5.40
2023-02-02T10:04:54.178Z,5.40
2023-02-02T10:07:31.992Z,5.40
2023-02-02T10:10:05.182Z,5.30
2023-02-02T10:12:47.572Z,5.40
2023-02-02T10:15:30.595Z,5.50
2023-02-02T10:18:12.470Z,5.60
2023-02-02T10:20:56.425Z,5.80
2023-02-02T10:23:25.920Z,5.80
2023-02-02T10:26:04.550Z,5.90
2023-02-02T10:28:45.425Z,6.10
2023-02-02T10:31:47.314Z,6.00
2023-02-02T10:34:36.361Z,5.90
2023-02-02T10:37:16.648Z,5.60
2023-02-02T10:40:04.898Z,5.40
2023-02-02T10:43:06.577Z,5.20
2023-02-02T10:45:34.380Z,4.80
2023-02-02T10:48:01.429Z,4.50
2023-02-02T10:50:28.697Z,4.60
2023-02-02T10:53:01.645Z,4.60
2023-02-02T10:55:33.964Z,4.60
2023-02-02T10:58:05.014Z,4.60
2023-02-02T11:00:53.754Z,4.70
2023-02-02T11:03:28.391Z,5.00
2023-02-02T11:06:15.363Z,5.10
2023-02-02T11:08:48.090Z,5.20
2023-02-02T11:11:25.235Z,5.20
2023-02-02T11:14:18.829Z,5.40
2023-02-02T11:16:46.369Z,5.50
2023-02-02T11:19:21.583Z,5.70
2023-02-02T11:21:54.177Z,5.90
2023-02-02T11:24:36.717Z,6.00
2023-02-02T11:27:12.299Z,6.20
2023-02-02T11:29:38.937Z,6.40
2023-02-02T11:32:21.243Z,6.70
2023-02-02T11:34:48.100Z,6.90
2023-02-02T11:37:21.373Z,6.90
2023-02-02T11:39:48.044Z,6.50
2023-02-02T11:42:23.195Z,6.20
2023-02-02T11:44:58.187Z,6.10
2023-02-02T11:47:28.644Z,5.90
2023-02-02T11:49:57.922Z,5.90
2023-02-02T11:52:30.635Z,5.90
2023-02-02T11:55:01.797Z,6.40
2023-02-02T11:57:29.902Z,6.70
2023-02-02T12:00:17.470Z,6.50
2023-02-02T12:02:49.415Z,6.40
2023-02-02T12:05:23.537Z,6.30
2023-02-02T12:07:50.376Z,6.10
2023-02-02T12:10:20.526Z,6.10
2023-02-02T12:13:08.367Z,5.90
2023-02-02T12:15:47.079Z,5.80
2023-02-02T12:18:55.587Z,6.00
2023-02-02T12:21:22.227Z,6.60
2023-02-02T12:24:10.549Z,6.70
2023-02-02T12:26:41.390Z,6.60
2023-02-02T12:29:46.177Z,6.50
2023-02-02T12:32:34.851Z,6.20
2023-02-02T12:35:38.992Z,5.90
2023-02-02T12:38:30.282Z,5.90
2023-02-02T12:41:35.954Z,5.80
2023-02-02T12:44:14.074Z,5.80
2023-02-02T12:47:12.426Z,5.90
2023-02-02T12:50:07.392Z,6.60
2023-02-02T12:52:50.714Z,7.40
2023-02-02T12:55:39.814Z,8.20
2023-02-02T12:58:18.563Z,8.80
2023-02-02T13:01:19.180Z,9.50
2023-02-02T13:03:57.848Z,9.20
2023-02-02T13:06:52.397Z,8.80
2023-02-02T13:09:48.491Z,8.10
2023-02-02T13:12:18.715Z,7.60
2023-02-02T13:14:59.140Z,7.00
2023-02-02T13:17:29.422Z,6.90
2023-02-02T13:20:02.082Z,6.70
2023-02-02T13:22:38.996Z,6.70
2023-02-02T13:25:09.482Z,6.40
2023-02-02T13:27:39.161Z,6.50
2023-02-02T13:30:20.764Z,6.80
2023-02-02T13:32:50.808Z,6.70
2023-02-02T13:35:36.880Z,7.00
2023-02-02T13:38:28.759Z,7.10
2023-02-02T13:40:59.219Z,6.80
2023-02-02T13:43:52.788Z,6.60
2023-02-02T13:46:57.137Z,6.60
2023-02-02T13:49:36.139Z,6.20
2023-02-02T13:52:21.447Z,6.20
2023-02-02T13:55:26.671Z,6.40
2023-02-02T13:58:18.641Z,6.40
2023-02-02T14:00:51.165Z,6.90
2023-02-02T14:03:40.500Z,7.20
2023-02-02T14:06:17.319Z,7.50
2023-02-02T14:09:02.479Z,7.90
2023-02-02T14:11:33.176Z,8.20
2023-02-02T14:14:33.261Z,8.30
2023-02-02T14:17:04.491Z,8.40
2023-02-02T14:19:31.144Z,8.40
2023-02-02T14:22:01.170Z,8.30
2023-02-02T14:24:30.558Z,8.10
2023-02-02T14:26:58.544Z,7.90
2023-02-02T14:29:31.432Z,7.80
2023-02-02T14:32:07.370Z,7.80
2023-02-02T14:34:39.386Z,7.50
2023-02-02T14:37:24.600Z,7.40
2023-02-02T14:39:58.441Z,7.20
2023-02-02T14:43:14.943Z,6.90
2023-02-02T14:45:43.127Z,6.90
2023-02-02T14:48:09.851Z,7.00
2023-02-02T14:50:39.290Z,7.00
2023-02-02T14:53:20.748Z,7.10
2023-02-02T14:56:10.988Z,6.80
2023-02-02T14:58:43.308Z,6.60
2023-02-02T15:01:22.895Z,6.20
2023-02-02T15:04:38.177Z,6.10
2023-02-02T15:07:23.077Z,5.90
2023-02-02T15:09:56.422Z,5.70
2023-02-02T15:12:39.652Z,5.70
2023-02-02T15:15:17.622Z,5.50
2023-02-02T15:18:04.565Z,5.30
2023-02-02T15:20:40.111Z,5.20
2023-02-02T15:23:36.060Z,5.10
2023-02-02T15:26:27.363Z,4.90
2023-02-02T15:29:08.092Z,4.80
2023-02-02T15:31:52.111Z,4.80
2023-02-02T15:34:22.296Z,4.70
2023-02-02T15:36:58.411Z,4.60
2023-02-02T15:39:30.938Z,4.40
2023-02-02T15:42:17.799Z,4.40
2023-02-02T15:44:45.515Z,4.30
2023-02-02T15:47:23.119Z,4.20
2023-02-02T15:49:50.466Z,4.10
2023-02-02T15:52:46.562Z,4.10
2023-02-02T15:55:31.666Z,4.00
2023-02-02T15:57:58.590Z,3.90
2023-02-02T16:00:35.790Z,3.80
2023-02-02T16:03:08.054Z,3.80
2023-02-02T16:05:34.682Z,3.70
2023-02-02T16:08:06.524Z,3.60
2023-02-02T16:10:34.310Z,3.60
2023-02-02T16:13:01.595Z,3.50
2023-02-02T16:15:31.732Z,3.40
2023-02-02T16:18:10.592Z,3.30
2023-02-02T16:20:39.042Z,3.20
2023-02-02T16:23:11.403Z,3.20
2023-02-02T16:25:49.852Z,3.10
2023-02-02T16:28:22.053Z,3.00
2023-02-02T16:30:51.691Z,2.90
2023-02-02T16:33:43.882Z,2.80
2023-02-02T16:36:24.559Z,2.80
2023-02-02T16:38:53.109Z,2.70
2023-02-02T16:41:35.356Z,2.60
2023-02-02T16:44:39.245Z,2.50
2023-02-02T16:47:25.975Z,2.30
2023-02-02T16:50:08.724Z,2.30
2023-02-02T16:52:50.270Z,2.20
2023-02-02T16:55:19.104Z,2.10
2023-02-02T16:57:47.281Z,2.00
2023-02-02T17:00:29.441Z,1.90
2023-02-02T17:03:09.689Z,1.80
2023-02-02T17:05:53.558Z,1.80
2023-02-02T17:08:36.521Z,1.70
2023-02-02T17:11:07.008Z,1.60
2023-02-02T17:13:36.546Z,1.60
2023-02-02T17:16:03.671Z,1.50
2023-02-02T17:18:30.409Z,1.50
2023-02-02T17:21:03.639Z,1.50
2023-02-02T17:23:32.316Z,1.40
2023-02-02T17:25:59.247Z,1.30
2023-02-02T17:28:27.057Z,1.30
2023-02-02T17:31:08.003Z,1.20
2023-02-02T17:33:36.238Z,1.20
2023-02-02T17:36:04.668Z,1.10
2023-02-02T17:38:32.583Z,1.10
2023-02-02T17:41:03.242Z,1.00
2023-02-02T17:43:30.915Z,1.00
2023-02-02T17:45:58.094Z,0.90
2023-02-02T17:48:25.343Z,0.90
2023-02-02T17:50:52.034Z,0.80
2023-02-02T17:53:25.490Z,0.70
2023-02-02T17:55:52.288Z,0.70
2023-02-02T17:58:19.419Z,0.70
2023-02-02T18:00:48.930Z,0.70
2023-02-02T18:03:35.452Z,0.70
2023-02-02T18:06:02.414Z,0.60
2023-02-02T18:08:30.802Z,0.60
2023-02-02T18:10:59.485Z,0.60
2023-02-02T18:13:26.923Z,0.60
2023-02-02T18:15:55.882Z,0.60
2023-02-02T18:18:23.633Z,0.60
2023-02-02T18:20:50.518Z,0.60
2023-02-02T18:23:18.719Z,0.50
2023-02-02T18:25:45.565Z,0.50
2023-02-02T18:28:16.580Z,0.50
2023-02-02T18:30:43.812Z,0.50
2023-02-02T18:33:11.968Z,0.50
2023-02-02T18:35:43.365Z,0.50
2023-02-02T18:38:10.555Z,0.40
2023-02-02T18:40:37.881Z,0.40
2023-02-02T18:43:04.580Z,0.30
2023-02-02T18:45:31.268Z,0.30
2023-02-02T18:47:57.934Z,0.30
2023-02-02T18:50:24.672Z,0.30
2023-02-02T18:52:51.417Z,0.30
2023-02-02T18:55:18.189Z,0.30
2023-02-02T18:57:44.988Z,0.20
2023-02-02T19:00:12.331Z,0.30
2023-02-02T19:02:39.005Z,0.20
2023-02-02T19:05:24.780Z,0.20
2023-02-02T19:07:54.635Z,0.10
2023-02-02T19:10:23.426Z,0.10
2023-02-02T19:12:57.087Z,0.00
2023-02-02T19:15:25.955Z,0.00
2023-02-02T19:17:55.029Z,0.00
2023-02-02T19:20:24.349Z,0.00
2023-02-02T19:23:06.559Z,-0.10
2023-02-02T19:25:33.532Z,-0.10
2023-02-02T19:28:28.082Z,-0.10
2023-02-02T19:30:57.763Z,-0.10
2023-02-02T19:33:43.348Z,-0.10
2023-02-02T19:36:19.400Z,-0.20
2023-02-02T19:38:47.010Z,-0.10
2023-02-02T19:41:21.116Z,-0.20
2023-02-02T19:43:48.773Z,-0.20
2023-02-02T19:46:22.798Z,-0.20
2023-02-02T19:48:51.729Z,-0.30
2023-02-02T19:51:48.521Z,-0.30
2023-02-02T19:54:23.731Z,-0.30
2023-02-02T19:56:59.696Z,-0.40
2023-02-02T19:59:32.186Z,-0.30
2023-02-02T20:02:20.437Z,-0.30
2023-02-02T20:04:48.125Z,-0.40
2023-02-02T20:07:15.273Z,-0.50
2023-02-02T20:09:43.729Z,-0.50
2023-02-02T20:12:24.444Z,-0.50
2023-02-02T20:14:51.196Z,-0.50
2023-02-02T20:17:29.013Z,-0.50
2023-02-02T20:19:56.055Z,-0.50
2023-02-02T20:22:28.352Z,-0.50
2023-02-02T20:24:57.236Z,-0.50
2023-02-02T20:27:26.850Z,-0.50
2023-02-02T20:29:56.520Z,-0.50
2023-02-02T20:32:36.941Z,-0.50
2023-02-02T20:35:20.874Z,-0.50
2023-02-02T20:37:47.668Z,-0.40
2023-02-02T20:40:26.569Z,-0.30
2023-02-02T20:42:53.927Z,-0.30
2023-02-02T20:45:21.945Z,-0.30
2023-02-02T20:47:49.785Z,-0.30
2023-02-02T20:50:19.141Z,-0.30
2023-02-02T20:52:45.873Z,-0.30
2023-02-02T20:55:13.103Z,-0.30
2023-02-02T20:57:40.369Z,-0.20
2023-02-02T21:00:10.406Z,-0.30
2023-02-02T21:02:37.144Z,-0.30
2023-02-02T21:05:04.602Z,-0.30
2023-02-02T21:07:31.523Z,-0.30
2023-02-02T21:09:58.260Z,-0.40
2023-02-02T21:12:25.759Z,-0.40
2023-02-02T21:14:55.756Z,-0.40
2023-02-02T21:17:22.834Z,-0.40
2023-02-02T21:19:49.980Z,-0.40
2023-02-02T21:22:16.705Z,-0.40
2023-02-02T21:24:43.356Z,-0.50
2023-02-02T21:27:10.253Z,-0.50
2023-02-02T21:29:37.392Z,-0.50
2023-02-02T21:32:04.634Z,-0.50
2023-02-02T21:34:32.123Z,-0.40
2023-02-02T21:36:59.409Z,-0.40
2023-02-02T21:39:36.925Z,-0.40
2023-02-02T21:42:09.710Z,-0.40
2023-02-02T21:44:52.443Z,-0.40
2023-02-02T21:47:22.114Z,-0.40
2023-02-02T21:49:48.958Z,-0.40
2023-02-02T21:52:17.745Z,-0.40
2023-02-02T21:54:45.249Z,-0.40
2023-02-02T21:57:24.569Z,-0.40
2023-02-02T21:59:55.354Z,-0.30
2023-02-02T22:02:42.584Z,-0.30
2023-02-02T22:05:18.337Z,-0.30
2023-02-02T22:07:46.399Z,-0.30
2023-02-02T22:10:32.712Z,-0.30
2023-02-02T22:12:59.400Z,-0.30
2023-02-02T22:15:33.103Z,-0.30
2023-02-02T22:18:02.219Z,-0.30
2023-02-02T22:20:34.138Z,-0.30
2023-02-02T22:23:03.150Z,-0.30
2023-02-02T22:25:35.680Z,-0.30
2023-02-02T22:28:13.404Z,-0.40
2023-02-02T22:30:41.514Z,-0.40
2023-02-02T22:33:13.013Z,-0.30
2023-02-02T22:35:41.078Z,-0.30
2023-02-02T22:38:08.283Z,-0.30
2023-02-02T22:40:35.367Z,-0.30
2023-02-02T22:43:05.632Z,-0.30
2023-02-02T22:45:32.544Z,-0.30
2023-02-02T22:47:59.350Z,-0.30
2023-02-02T22:50:29.101Z,-0.30
2023-02-02T22:52:56.309Z,-0.30
2023-02-02T22:55:23.041Z,-0.20
2023-02-02T22:57:50.057Z,-0.20
2023-02-02T23:00:22.533Z,-0.20
2023-02-02T23:02:49.488Z,-0.20
2023-02-02T23:05:17.454Z,-0.20
2023-02-02T23:07:45.283Z,-0.10
2023-02-02T23:10:14.843Z,-0.10
2023-02-02T23:12:42.778Z,-0.10
2023-02-02T23:15:10.973Z,-0.10
2023-02-02T23:17:37.868Z,-0.10
2023-02-02T23:20:11.161Z,-0.10
2023-02-02T23:22:37.888Z,0.00
2023-02-02T23:25:04.962Z,0.00
2023-02-02T23:27:31.818Z,0.00
2023-02-02T23:29:58.504Z,0.00
2023-02-02T23:32:25.164Z,0.00
2023-02-02T23:34:51.874Z,0.00
2023-02-02T23:37:18.818Z,0.00
2023-02-02T23:39:45.595Z,0.00
2023-02-02T23:42:12.449Z,0.00
2023-02-02T23:44:39.087Z,0.10
2023-02-02T23:47:06.159Z,0.10
2023-02-02T23:49:33.499Z,0.10
2023-02-02T23:52:00.533Z,0.10
2023-02-02T23:54:28.421Z,0.10
2023-02-02T23:56:56.260Z,0.10
2023-02-02T23:59:23.010Z,0.20
